Home > Products > Valid Products > TAF

000
FTUS45 KPUB 282320
TAFPUB
TAF
KPUB 282320Z 2900/2924 24007KT P6SM FEW150 BKN200
     FM290700 31010KT P6SM SCT200
     FM291600 26012KT P6SM BKN200=



000
FTUS45 KPUB 282320
TAFALS
TAF
KALS 282320Z 2900/2924 19007KT P6SM FEW200
     FM290400 VRB05KT P6SM SCT200
     FM291700 21007KT P6SM FEW200
     FM291900 24012KT P6SM FEW200=



000
FTUS45 KPUB 282320
TAFPUB
TAF
KPUB 282320Z 2900/2924 24007KT P6SM FEW150 BKN200
     FM290700 31010KT P6SM SCT200
     FM291600 26012KT P6SM BKN200=



000
FTUS45 KPUB 282320
TAFALS
TAF
KALS 282320Z 2900/2924 19007KT P6SM FEW200
     FM290400 VRB05KT P6SM SCT200
     FM291700 21007KT P6SM FEW200
     FM291900 24012KT P6SM FEW200=



000
FTUS45 KPUB 282320
TAFCOS
TAF
KCOS 282320Z 2900/2924 13010KT P6SM FEW150 BKN200
     FM290300 35009KT P6SM BKN200
     FM291700 22010KT P6SM BKN200
     FM292000 23015KT P6SM SCT200=



000
FTUS45 KPUB 282320
TAFCOS
TAF
KCOS 282320Z 2900/2924 13010KT P6SM FEW150 BKN200
     FM290300 35009KT P6SM BKN200
     FM291700 22010KT P6SM BKN200
     FM292000 23015KT P6SM SCT200=



000
FTUS45 KPUB 281731
TAFALS
TAF
KALS 281731Z 2818/2918 23007KT P6SM FEW200
     FM290400 VRB05KT P6SM SCT200
     FM291700 21007KT P6SM FEW200=



000
FTUS45 KPUB 281731
TAFCOS
TAF
KCOS 281731Z 2818/2918 VRB06KT P6SM FEW150 BKN200
     FM281900 18010KT P6SM FEW130 BKN200
     FM290000 23011KT P6SM FEW130 BKN200
     FM290300 35009KT P6SM BKN200=



000
FTUS45 KPUB 281731
TAFPUB
TAF
KPUB 281731Z 2818/2918 27008KT P6SM BKN200
     FM282000 26012G22KT P6SM FEW140 BKN200
     FM290000 27008KT P6SM FEW140 BKN200
     FM290700 31009KT P6SM SCT200
     FM291600 28012KT P6SM BKN200=



000
FTUS45 KPUB 281731
TAFALS
TAF
KALS 281731Z 2818/2918 23007KT P6SM FEW200
     FM290400 VRB05KT P6SM SCT200
     FM291700 21007KT P6SM FEW200=



000
FTUS45 KPUB 281731
TAFCOS
TAF
KCOS 281731Z 2818/2918 VRB06KT P6SM FEW150 BKN200
     FM281900 18010KT P6SM FEW130 BKN200
     FM290000 23011KT P6SM FEW130 BKN200
     FM290300 35009KT P6SM BKN200=



000
FTUS45 KPUB 281731
TAFPUB
TAF
KPUB 281731Z 2818/2918 27008KT P6SM BKN200
     FM282000 26012G22KT P6SM FEW140 BKN200
     FM290000 27008KT P6SM FEW140 BKN200
     FM290700 31009KT P6SM SCT200
     FM291600 28012KT P6SM BKN200=



000
FTUS45 KPUB 281122
TAFALS
TAF
KALS 281122Z 2812/2912 VRB06KT P6SM SCT200
     FM281900 23008KT P6SM FEW130 SCT200
     FM290400 VRB05KT P6SM SCT200=



000
FTUS45 KPUB 281122
TAFCOS
TAF
KCOS 281122Z 2812/2912 VRB06KT P6SM BKN200
     FM281800 18011KT P6SM FEW130 SCT200
     FM290000 23010KT P6SM FEW130 BKN200
     FM290300 35009KT P6SM BKN200=



000
FTUS45 KPUB 281122
TAFPUB
TAF
KPUB 281122Z 2812/2912 27008KT P6SM BKN200
     FM281800 26012G22KT P6SM FEW140 SCT200
     FM290000 27008KT P6SM FEW140 BKN200
     FM290700 31009KT P6SM SCT200=



000
FTUS45 KPUB 281122
TAFPUB
TAF
KPUB 281122Z 2812/2912 27008KT P6SM BKN200
     FM281800 26012G22KT P6SM FEW140 SCT200
     FM290000 27008KT P6SM FEW140 BKN200
     FM290700 31009KT P6SM SCT200=



000
FTUS45 KPUB 281122
TAFALS
TAF
KALS 281122Z 2812/2912 VRB06KT P6SM SCT200
     FM281900 23008KT P6SM FEW130 SCT200
     FM290400 VRB05KT P6SM SCT200=



000
FTUS45 KPUB 281122
TAFCOS
TAF
KCOS 281122Z 2812/2912 VRB06KT P6SM BKN200
     FM281800 18011KT P6SM FEW130 SCT200
     FM290000 23010KT P6SM FEW130 BKN200
     FM290300 35009KT P6SM BKN200=



000
FTUS45 KPUB 280537
TAFALS
TAF
KALS 280537Z 2806/2906 VRB06KT P6SM SCT200
     FM281800 23008KT P6SM FEW120 SCT200
     FM290200 VRB05KT P6SM SCT200=



000
FTUS45 KPUB 280537
TAFALS
TAF
KALS 280537Z 2806/2906 VRB06KT P6SM SCT200
     FM281800 23008KT P6SM FEW120 SCT200
     FM290200 VRB05KT P6SM SCT200=



000
FTUS45 KPUB 280537
TAFCOS
TAF
KCOS 280537Z 2806/2906 36007KT P6SM BKN200
     FM281800 16010KT P6SM FEW120 BKN200
     FM282200 22008KT P6SM FEW120 SCT200
     FM290200 35008KT P6SM SCT200=



000
FTUS45 KPUB 280537
TAFPUB
TAF
KPUB 280537Z 2806/2906 27008KT P6SM BKN200
     FM281800 28010KT P6SM FEW150 BKN200
     FM282200 29012KT P6SM SCT200
     FM290200 30007KT P6SM SCT200=



000
FTUS45 KPUB 280537
TAFPUB
TAF
KPUB 280537Z 2806/2906 27008KT P6SM BKN200
     FM281800 28010KT P6SM FEW150 BKN200
     FM282200 29012KT P6SM SCT200
     FM290200 30007KT P6SM SCT200=



000
FTUS45 KPUB 280537
TAFCOS
TAF
KCOS 280537Z 2806/2906 36007KT P6SM BKN200
     FM281800 16010KT P6SM FEW120 BKN200
     FM282200 22008KT P6SM FEW120 SCT200
     FM290200 35008KT P6SM SCT200=



000
FTUS45 KPUB 272320
TAFPUB
TAF
KPUB 272320Z 2800/2824 27009KT P6SM BKN200
     FM280300 29007KT P6SM BKN200
     FM281700 27013KT P6SM SCT200=



000
FTUS45 KPUB 272320
TAFPUB
TAF
KPUB 272320Z 2800/2824 27007KT P6SM BKN200
     FM280300 29007KT P6SM BKN200
     FM281700 26015KT P6SM SCT200=



000
FTUS45 KPUB 272320
TAFPUB
TAF
KPUB 272320Z 2800/2824 27007KT P6SM BKN200
     FM280300 29007KT P6SM BKN200
     FM281700 26015KT P6SM SCT200=



000
FTUS45 KPUB 272320
TAFCOS
TAF
KCOS 272320Z 2800/2824 17007KT P6SM BKN200
     FM280400 36007KT P6SM BKN200
     FM281900 16008KT P6SM SCT200=



000
FTUS45 KPUB 272320
TAFALS
TAF
KALS 272320Z 2800/2824 VRB06KT P6SM FEW200=



000
FTUS45 KPUB 272320
TAFCOS
TAF
KCOS 272320Z 2800/2824 17007KT P6SM BKN200
     FM280400 35007KT P6SM BKN200
     FM281900 17009KT P6SM SCT200=



000
FTUS45 KPUB 272320
TAFALS
TAF
KALS 272320Z 2800/2824 VRB06KT P6SM FEW200=



000
FTUS45 KPUB 272320
TAFALS
TAF
KALS 272320Z 2800/2824 VRB06KT P6SM SCT200=



000
FTUS45 KPUB 272320
TAFCOS
TAF
KCOS 272320Z 2800/2824 17007KT P6SM BKN200
     FM280400 36007KT P6SM BKN200
     FM281900 16008KT P6SM SCT200=



000
FTUS45 KPUB 271720
TAFCOS
TAF
KCOS 271720Z 2718/2818 17007KT P6SM BKN200
     FM280200 35007KT P6SM BKN200=



000
FTUS45 KPUB 271720
TAFCOS
TAF
KCOS 271720Z 2718/2818 17007KT P6SM BKN200
     FM280200 35007KT P6SM BKN200=



000
FTUS45 KPUB 271720
TAFALS
TAF
KALS 271720Z 2718/2818 VRB06KT P6SM FEW200=



000
FTUS45 KPUB 271720
TAFPUB
TAF
KPUB 271720Z 2718/2818 24007KT P6SM BKN200
      TEMPO 2720/2724 27012KT
     FM280200 29007KT P6SM BKN200=



000
FTUS45 KPUB 271720
TAFPUB
TAF
KPUB 271720Z 2718/2818 24007KT P6SM BKN200
      TEMPO 2720/2724 27012KT
     FM280200 29007KT P6SM BKN200=



000
FTUS45 KPUB 271720
TAFALS
TAF
KALS 271720Z 2718/2818 VRB06KT P6SM FEW200=



000
FTUS45 KPUB 271125
TAFCOS
TAF
KCOS 271125Z 2712/2812 01007KT P6SM BKN200
     FM271800 17007KT P6SM SCT200
     FM280200 35007KT P6SM BKN200=



000
FTUS45 KPUB 271125
TAFPUB
TAF
KPUB 271125Z 2712/2812 VRB04KT P6SM BKN200
     FM271900 25007KT P6SM SCT200
     FM280200 28007KT P6SM BKN200=



000
FTUS45 KPUB 271125
TAFCOS
TAF
KCOS 271125Z 2712/2812 01007KT P6SM BKN200
     FM271800 17007KT P6SM SCT200
     FM280200 35007KT P6SM BKN200=



000
FTUS45 KPUB 271125
TAFALS
TAF
KALS 271125Z 2712/2812 VRB06KT P6SM SCT200=



000
FTUS45 KPUB 271125
TAFPUB
TAF
KPUB 271125Z 2712/2812 VRB04KT P6SM BKN200
     FM271900 25007KT P6SM SCT200
     FM280200 28007KT P6SM BKN200=



000
FTUS45 KPUB 271125
TAFALS
TAF
KALS 271125Z 2712/2812 VRB06KT P6SM SCT200=



000
FTUS45 KPUB 270526
TAFALS
TAF
KALS 270526Z 2706/2806 VRB06KT P6SM FEW150=



000
FTUS45 KPUB 270526
TAFCOS
TAF
KCOS 270526Z 2706/2806 VRB06KT P6SM SCT200
     FM271000 02007KT P6SM BKN200
     FM271800 16008KT P6SM FEW100 BKN200
     FM280300 35008KT P6SM SCT200=



000
FTUS45 KPUB 270526
TAFPUB
TAF
KPUB 270526Z 2706/2806 VRB06KT P6SM SCT200
     FM271900 27009KT P6SM FEW150 SCT200
     FM280200 30007KT P6SM SCT200=



000
FTUS45 KPUB 270526
TAFPUB
TAF
KPUB 270526Z 2706/2806 VRB06KT P6SM SCT200
     FM271900 27009KT P6SM FEW150 SCT200
     FM280200 30007KT P6SM SCT200=



000
FTUS45 KPUB 270526
TAFALS
TAF
KALS 270526Z 2706/2806 VRB06KT P6SM FEW150=



000
FTUS45 KPUB 270526
TAFCOS
TAF
KCOS 270526Z 2706/2806 VRB06KT P6SM SCT200
     FM271000 02007KT P6SM BKN200
     FM271800 16008KT P6SM FEW100 BKN200
     FM280300 35008KT P6SM SCT200=



000
FTUS45 KPUB 262333
TAFALS
TAF
KALS 262333Z 2700/2724 VRB06KT P6SM FEW120=



000
FTUS45 KPUB 262333
TAFPUB
TAF
KPUB 262333Z 2700/2724 VRB06KT P6SM FEW150
     FM271900 25009KT P6SM FEW150=



000
FTUS45 KPUB 262333
TAFCOS
TAF
KCOS 262333Z 2700/2724 14007KT P6SM FEW100 SCT200
     FM270200 03006KT P6SM FEW150
     FM271700 16009KT P6SM FEW150=



000
FTUS45 KPUB 262333
TAFPUB
TAF
KPUB 262333Z 2700/2724 VRB06KT P6SM FEW150
     FM271900 25009KT P6SM FEW150=



000
FTUS45 KPUB 262333
TAFALS
TAF
KALS 262333Z 2700/2724 VRB06KT P6SM FEW120=



000
FTUS45 KPUB 262333
TAFCOS
TAF
KCOS 262333Z 2700/2724 14007KT P6SM FEW100 SCT200
     FM270200 03006KT P6SM FEW150
     FM271700 16009KT P6SM FEW150=



000
FTUS45 KPUB 261944 AAA
TAFCOS
TAF AMD
KCOS 261944Z 2620/2718 15006KT P6SM SCT012 SCT150
     FM262100 14007KT P6SM SCT100 SCT150
     FM262300 VRB06KT P6SM SCT120=



000
FTUS45 KPUB 261944 AAA
TAFCOS
TAF AMD
KCOS 261944Z 2620/2718 15006KT P6SM SCT012 SCT150
     FM262100 14007KT P6SM SCT100 SCT150
     FM262300 VRB06KT P6SM SCT120=



000
FTUS45 KPUB 261727
TAFPUB
TAF
KPUB 261727Z 2618/2718 16006KT P6SM SCT025 SCT120
     FM262000 10007KT P6SM FEW025 SCT120
     FM262300 VRB06KT P6SM SCT120=



000
FTUS45 KPUB 261727
TAFALS
TAF
KALS 261727Z 2618/2718 VRB06KT P6SM SCT120=



000
FTUS45 KPUB 261727
TAFCOS
TAF
KCOS 261727Z 2618/2718 15009KT P6SM BKN012
      TEMPO 2618/2620 SCT012 SCT060
     FM262000 14007KT P6SM FEW050 SCT100 SCT150
     FM262300 VRB06KT P6SM SCT120=



000
FTUS45 KPUB 261727
TAFPUB
TAF
KPUB 261727Z 2618/2718 16006KT P6SM SCT025 SCT120
     FM262000 10007KT P6SM FEW025 SCT120
     FM262300 VRB06KT P6SM SCT120=



000
FTUS45 KPUB 261727
TAFALS
TAF
KALS 261727Z 2618/2718 VRB06KT P6SM SCT120=



000
FTUS45 KPUB 261727
TAFCOS
TAF
KCOS 261727Z 2618/2718 15009KT P6SM BKN012
      TEMPO 2618/2620 SCT012 SCT060
     FM262000 14007KT P6SM FEW050 SCT100 SCT150
     FM262300 VRB06KT P6SM SCT120=



000
FTUS45 KPUB 261642 AAC
TAFPUB
TAF AMD
KPUB 261642Z 2617/2712 12006KT P6SM SCT025 SCT120 SCT170
     FM261700 10007KT P6SM FEW025 SCT120 SCT170
     FM262300 VRB06KT P6SM FEW080 SCT140=



000
FTUS45 KPUB 261642 AAC
TAFPUB
TAF AMD
KPUB 261642Z 2617/2712 12006KT P6SM SCT025 SCT120 SCT170
     FM261700 10007KT P6SM FEW025 SCT120 SCT170
     FM262300 VRB06KT P6SM FEW080 SCT140=



000
FTUS45 KPUB 261451 AAB
TAFCOS
TAF AMD
KCOS 261451Z 2615/2712 18009KT P6SM FEW009 SCT100 SCT150
      TEMPO 2615/2619 BKN009
     FM261900 14007KT P6SM FEW050 SCT100 SCT150
     FM262300 VRB06KT P6SM FEW060 SCT120=



000
FTUS45 KPUB 261451 AAB
TAFCOS
TAF AMD
KCOS 261451Z 2615/2712 18009KT P6SM FEW009 SCT100 SCT150
      TEMPO 2615/2619 BKN009
     FM261900 14007KT P6SM FEW050 SCT100 SCT150
     FM262300 VRB06KT P6SM FEW060 SCT120=



000
FTUS45 KPUB 261448 AAC
TAFPUB
TAF AMD
KPUB 261448Z 2615/2712 VRB06KT P6SM FEW010 SCT120 SCT170
      TEMPO 2615/2617 BKN020
     FM261700 10007KT P6SM FEW060 SCT120 SCT170
     FM262300 VRB06KT P6SM FEW080 SCT140=



000
FTUS45 KPUB 261448 AAC
TAFPUB
TAF AMD
KPUB 261448Z 2615/2712 VRB06KT P6SM FEW010 SCT120 SCT170
      TEMPO 2615/2617 BKN020
     FM261700 10007KT P6SM FEW060 SCT120 SCT170
     FM262300 VRB06KT P6SM FEW080 SCT140=



000
FTUS45 KPUB 261253 AAB
TAFPUB
TAF AMD
KPUB 261253Z 2613/2712 VRB06KT P6SM FEW010 SCT120 SCT170
      TEMPO 2613/2617 BKN030
     FM261700 10007KT P6SM FEW060 SCT120 SCT170
     FM262300 VRB06KT P6SM FEW080 SCT140=



000
FTUS45 KPUB 261253 AAB
TAFPUB
TAF AMD
KPUB 261253Z 2613/2712 VRB06KT P6SM FEW010 SCT120 SCT170
      TEMPO 2613/2617 BKN030
     FM261700 10007KT P6SM FEW060 SCT120 SCT170
     FM262300 VRB06KT P6SM FEW080 SCT140=



000
FTUS45 KPUB 261159 AAA
TAFCOS
TAF AMD
KCOS 261159Z 2612/2712 18009KT P6SM FEW008 SCT100 SCT150
      TEMPO 2612/2614 BKN007
     FM261800 14007KT P6SM FEW050 SCT100 SCT150
     FM262300 VRB06KT P6SM FEW060 SCT120=



000
FTUS45 KPUB 261159 AAA
TAFCOS
TAF AMD
KCOS 261159Z 2612/2712 18009KT P6SM FEW008 SCT100 SCT150
      TEMPO 2612/2614 BKN007
     FM261800 14007KT P6SM FEW050 SCT100 SCT150
     FM262300 VRB06KT P6SM FEW060 SCT120=



000
FTUS45 KPUB 261147
TAFCOS
TAF
KCOS 261147Z 2612/2712 18009KT P6SM FEW010 SCT100 SCT150
      TEMPO 2612/2614 BKN010
     FM261800 14007KT P6SM FEW050 SCT100 SCT150
     FM262300 VRB06KT P6SM FEW060 SCT120=



000
FTUS45 KPUB 261147
TAFALS
TAF
KALS 261147Z 2612/2712 VRB06KT P6SM FEW060 SCT120=



000
FTUS45 KPUB 261147
TAFPUB
TAF
KPUB 261147Z 2612/2712 VRB06KT P6SM FEW010 SCT120 SCT170
     FM261700 10007KT P6SM FEW060 SCT120 SCT170
     FM262300 VRB06KT P6SM FEW080 SCT140=



000
FTUS45 KPUB 261147
TAFCOS
TAF
KCOS 261147Z 2612/2712 18009KT P6SM FEW010 SCT100 SCT150
      TEMPO 2612/2614 BKN010
     FM261800 14007KT P6SM FEW050 SCT100 SCT150
     FM262300 VRB06KT P6SM FEW060 SCT120=



000
FTUS45 KPUB 261147
TAFPUB
TAF
KPUB 261147Z 2612/2712 VRB06KT P6SM FEW010 SCT120 SCT170
     FM261700 10007KT P6SM FEW060 SCT120 SCT170
     FM262300 VRB06KT P6SM FEW080 SCT140=



000
FTUS45 KPUB 261147
TAFALS
TAF
KALS 261147Z 2612/2712 VRB06KT P6SM FEW060 SCT120=



000
FTUS45 KPUB 260600 AAA
TAFPUB
TAF AMD
KPUB 260600Z 2606/2706 30015G30KT P6SM SCT150 SCT200
     FM260630 04010KT P6SM SCT150 SCT200
     FM261900 13005KT P6SM SCT200=



000
FTUS45 KPUB 260600 AAA
TAFPUB
TAF AMD
KPUB 260600Z 2606/2706 30015G30KT P6SM SCT150 SCT200
     FM260630 04010KT P6SM SCT150 SCT200
     FM261900 13005KT P6SM SCT200=



000
FTUS45 KPUB 260600 AAA
TAFCOS
TAF AMD
KCOS 260600Z 2606/2706 04010KT P6SM SCT120 SCT200
     FM261800 16007KT P6SM SCT120 SCT200=



000
FTUS45 KPUB 260600 AAA
TAFCOS
TAF AMD
KCOS 260600Z 2606/2706 04010KT P6SM SCT120 SCT200
     FM261800 16007KT P6SM SCT120 SCT200=



000
FTUS45 KPUB 260520
TAFPUB
TAF
KPUB 260520Z 2606/2706 30015G30KT P6SM SCT150 SCT200
     FM260800 31010KT P6SM SCT150 SCT200
     FM261900 11009KT P6SM SCT200=



000
FTUS45 KPUB 260520
TAFCOS
TAF
KCOS 260520Z 2606/2706 01010KT P6SM SCT120 SCT200
     FM261800 15009KT P6SM SCT120 SCT200=



000
FTUS45 KPUB 260520
TAFALS
TAF
KALS 260520Z 2606/2706 VRB05KT P6SM SKC=



000
FTUS45 KPUB 260315 AAA
TAFPUB
TAF AMD
KPUB 260315Z 2603/2624 30015G30KT P6SM SKC
     FM260500 31009KT P6SM SCT150 BKN200
     FM261900 11009KT P6SM SCT200=



000
FTUS45 KPUB 260315 AAA
TAFPUB
TAF AMD
KPUB 260315Z 2603/2624 30015G30KT P6SM SKC
     FM260500 31009KT P6SM SCT150 BKN200
     FM261900 11009KT P6SM SCT200=



000
FTUS45 KPUB 260303 AAA
TAFCOS
TAF AMD
KCOS 260303Z 2603/2624 31012G28KT P6SM FEW080 FEW150 BKN250
     FM260600 01007KT P6SM SCT120 BKN200
     FM261800 15009KT P6SM SCT120 SCT200=



000
FTUS45 KPUB 260303 AAA
TAFCOS
TAF AMD
KCOS 260303Z 2603/2624 31012G28KT P6SM FEW080 FEW150 BKN250
     FM260600 01007KT P6SM SCT120 BKN200
     FM261800 15009KT P6SM SCT120 SCT200=



    US Dept of Commerce
    National Oceanic and Atmospheric Administration
    National Weather Service
    1325 East West Highway
    Silver Spring, MD 20910
    Page Author: NWS Internet Services Team
Disclaimer
Information Quality
Credits
Glossary
Privacy Policy
Freedom of Information Act (FOIA)
About Us
Career Opportunities